Aérodrome :
LOGIN :

S'inscrire | Disclaimer

   EN    FR    IT 

 










Légende :    VFR   VFR Marginal   IFR   IFR Intensif   IFR Très Intensif
Visi : 
Plafond : 
>= 8 km
>= 3000ft
5 à 8 km
1000 à 3000 ft
1500m à 5 km
500 à 1000 ft
800 à 1500m
200 à 500 ft
< 800m
< 200 ft
Symboles :   Orages  Brouillard  Fortes neiges  Fortes précipitations  Vent > 20 kt
SIGMETs :   Divers  Orages  Givrage  Turbulence  Onde Orograph.  Cendres Volcan.







- Altitude de l'aérodrome : 297 ft
- Code IATA : UIP
- Voir les cartes d'approche


LFRQ - Quimper Pluguffan

DERNIER METAR :
  • 160030Z AUTO 27003KT 9999 OVC013 17/15 Q1019

METARs EXPIRÉS :
  • 160000Z AUTO 25004KT 200V280 9999 OVC014 17/15 Q1019
  • 152330Z AUTO VRB03KT 9999 OVC014 17/15 Q1019
  • 152300Z AUTO VRB02KT 9999 OVC014 17/15 Q1019 TEMPO 3000 RA OVC003
  • 152230Z AUTO VRB01KT 9999 OVC015 17/15 Q1020 TEMPO 3000 RA OVC003
  • 152200Z AUTO VRB03KT 9999 OVC016 17/15 Q1020 BECMG BKN011

TAF TAF LFRQ
Valide du 15 à 18h jusqu'au 16 à 18h UTC


151700Z 1518/1618 23007KT 9999 BKN017
BECMG 1521/1523 BKN011
TEMPO 1600/1612 3000 RA OVC003
BECMG 1613/1615 33011KT SCT017
Pas de NOTAMs connus pour ce terrain.



MET'MAP, la Météo Aéronautique d'un coup d'oeil ! - Copyright ORBIFLY Décembre 2007 - Disclaimer

ORBIFLY MET'MAP TEAM :

Programmation & Développement : Alexandra Zaïnal
Conception & Développement : Baudouin d'Aumeries
Co-Programmation & Développement : Marc-Olivier Méhu
Soutien technique & logistique : Manuel Goepfert

Contact : metmap@orbifly.com




SOURCES & CREDITS :

   NOAA